Wetterdaten: Mittwoch, 22.08.2012
Datum Zeit Temperatur Luftfeuchte Regen Wind Richtung Richtung Taupunkt Windchill Windben
22.08.2012 00:00 17,9 C 76 % 0,0 l/m 0,0 km/h (0 Bft) S 180 13,6 C 18,0 C 0,0 km/h (0 Bft)
22.08.2012 00:05 17,7 C 76 % 0,0 l/m 0,0 km/h (0 Bft) O-SO 112 13,4 C 17,7 C 0,0 km/h (0 Bft)
22.08.2012 00:10 17,4 C 76 % 0,0 l/m 0,0 km/h (0 Bft) NO 45 13,1 C 17,4 C 0,0 km/h (0 Bft)
22.08.2012 00:15 17,4 C 77 % 0,0 l/m 0,0 km/h (0 Bft) N 360 13,3 C 17,1 C 0,0 km/h (0 Bft)
22.08.2012 00:20 17,8 C 78 % 0,0 l/m 0,2 km/h (0 Bft) N-NO 22 13,9 C 17,2 C 0,0 km/h (0 Bft)
22.08.2012 00:25 18,0 C 77 % 0,0 l/m 0,2 km/h (0 Bft) N-NO 22 13,9 C 17,5 C 2,1 km/h (1 Bft)
22.08.2012 00:30 18,0 C 76 % 0,0 l/m 0,0 km/h (0 Bft) S-SO 157 13,7 C 17,7 C 0,0 km/h (0 Bft)
22.08.2012 00:35 18,0 C 76 % 0,0 l/m 0,0 km/h (0 Bft) S-SO 157 13,7 C 17,9 C 0,0 km/h (0 Bft)
22.08.2012 00:40 18,3 C 76 % 0,0 l/m 0,0 km/h (0 Bft) SO 135 14,0 C 18,0 C 0,0 km/h (0 Bft)
22.08.2012 00:45 18,3 C 75 % 0,0 l/m 0,0 km/h (0 Bft) W 270 13,8 C 18,1 C 0,0 km/h (0 Bft)
22.08.2012 00:50 18,2 C 75 % 0,0 l/m 0,0 km/h (0 Bft) N-NO 22 13,7 C 18,3 C 0,0 km/h (0 Bft)
22.08.2012 00:55 18,2 C 75 % 0,0 l/m 0,2 km/h (0 Bft) O-SO 112 13,7 C 18,4 C 3,2 km/h (1 Bft)
22.08.2012 01:00 18,3 C 75 % 0,0 l/m 0,3 km/h (0 Bft) NO 45 13,8 C 18,5 C 0,0 km/h (0 Bft)
22.08.2012 01:05 18,1 C 75 % 0,0 l/m 0,3 km/h (0 Bft) SO 135 13,6 C 18,5 C 0,0 km/h (0 Bft)
22.08.2012 01:10 18,0 C 75 % 0,0 l/m 0,2 km/h (0 Bft) S 180 13,5 C 18,3 C 0,0 km/h (0 Bft)
22.08.2012 01:15 18,1 C 75 % 0,0 l/m 0,0 km/h (0 Bft) N 360 13,6 C 18,1 C 0,0 km/h (0 Bft)
22.08.2012 01:20 18,0 C 75 % 0,0 l/m 0,0 km/h (0 Bft) S 180 13,5 C 18,1 C 0,0 km/h (0 Bft)
22.08.2012 01:25 18,2 C 75 % 0,0 l/m 0,2 km/h (0 Bft) N 360 13,7 C 18,1 C 3,2 km/h (1 Bft)
22.08.2012 01:30 18,2 C 75 % 0,0 l/m 0,3 km/h (0 Bft) SO 135 13,7 C 18,4 C 0,0 km/h (0 Bft)
22.08.2012 01:35 18,4 C 74 % 0,0 l/m 0,3 km/h (0 Bft) N-NW 337 13,7 C 18,6 C 0,0 km/h (0 Bft)
22.08.2012 01:40 18,6 C 74 % 0,0 l/m 0,2 km/h (0 Bft) S 180 13,9 C 18,7 C 0,0 km/h (0 Bft)
22.08.2012 01:45 18,7 C 73 % 0,0 l/m 0,2 km/h (0 Bft) N 360 13,8 C 18,9 C 0,0 km/h (0 Bft)
22.08.2012 01:50 18,7 C 73 % 0,0 l/m 0,5 km/h (0 Bft) S-SW 202 13,8 C 19,0 C 2,4 km/h (1 Bft)
22.08.2012 01:55 18,8 C 72 % 0,0 l/m 0,8 km/h (0 Bft) W-SW 247 13,6 C 19,3 C 3,9 km/h (1 Bft)
22.08.2012 02:00 18,9 C 72 % 0,0 l/m 0,8 km/h (0 Bft) S 180 13,7 C 19,4 C 0,0 km/h (0 Bft)
22.08.2012 02:05 18,8 C 72 % 0,0 l/m 0,3 km/h (0 Bft) SW 225 13,6 C 19,4 C 1,6 km/h (1 Bft)
22.08.2012 02:10 18,8 C 72 % 0,0 l/m 0,2 km/h (0 Bft) S-SO 157 13,6 C 19,4 C 0,0 km/h (0 Bft)
22.08.2012 02:15 18,8 C 71 % 0,0 l/m 0,0 km/h (0 Bft) N-NO 22 13,4 C 19,3 C 0,0 km/h (0 Bft)
22.08.2012 02:20 18,9 C 71 % 0,0 l/m 0,2 km/h (0 Bft) SW 225 13,5 C 19,3 C 2,7 km/h (1 Bft)
22.08.2012 02:25 18,9 C 70 % 0,0 l/m 0,2 km/h (0 Bft) N-NO 22 13,3 C 19,3 C 0,0 km/h (0 Bft)
22.08.2012 02:30 19,0 C 70 % 0,0 l/m 0,2 km/h (0 Bft) S 180 13,4 C 19,3 C 0,0 km/h (0 Bft)
22.08.2012 02:35 19,0 C 69 % 0,0 l/m 0,3 km/h (0 Bft) N-NO 22 13,2 C 19,4 C 1,9 km/h (1 Bft)
22.08.2012 02:40 19,3 C 68 % 0,0 l/m 0,6 km/h (0 Bft) N 360 13,2 C 19,6 C 2,9 km/h (1 Bft)
22.08.2012 02:45 19,4 C 68 % 0,0 l/m 0,6 km/h (0 Bft) W-NW 292 13,3 C 19,7 C 0,0 km/h (0 Bft)
22.08.2012 02:50 19,4 C 67 % 0,0 l/m 0,3 km/h (0 Bft) N-NW 337 13,1 C 19,7 C 2,3 km/h (1 Bft)
22.08.2012 02:55 19,7 C 67 % 0,0 l/m 0,6 km/h (0 Bft) N-NW 337 13,4 C 19,9 C 0,0 km/h (0 Bft)
22.08.2012 03:00 19,5 C 67 % 0,0 l/m 0,6 km/h (0 Bft) N-NO 22 13,2 C 20,1 C 0,0 km/h (0 Bft)
22.08.2012 03:05 19,6 C 65 % 0,0 l/m 0,6 km/h (0 Bft) N 360 12,8 C 20,2 C 2,7 km/h (1 Bft)
22.08.2012 03:10 19,8 C 65 % 0,0 l/m 0,8 km/h (0 Bft) O 90 13,0 C 20,3 C 4,2 km/h (1 Bft)
22.08.2012 03:15 20,0 C 63 % 0,0 l/m 1,3 km/h (1 Bft) S-SW 202 12,7 C 20,6 C 0,0 km/h (0 Bft)
22.08.2012 03:20 20,2 C 62 % 0,0 l/m 1,0 km/h (0 Bft) O-SO 112 12,9 C 20,7 C 0,0 km/h (0 Bft)
22.08.2012 03:25 20,4 C 59 % 0,0 l/m 5,5 km/h (1 Bft) O-SO 112 12,5 C 21,2 C 21,6 km/h (4 Bft)
22.08.2012 03:30 20,7 C 60 % 0,0 l/m 8,9 km/h (2 Bft) O 90 12,8 C 20,5 C 14,0 km/h (3 Bft)
22.08.2012 03:35 20,8 C 62 % 0,0 l/m 10,1 km/h (2 Bft) O 90 13,2 C 20,3 C 15,8 km/h (3 Bft)
22.08.2012 03:40 20,5 C 63 % 0,0 l/m 10,8 km/h (2 Bft) S-SO 157 13,2 C 20,0 C 8,5 km/h (2 Bft)
22.08.2012 03:45 20,4 C 65 % 0,0 l/m 11,1 km/h (2 Bft) O-SO 112 13,6 C 19,7 C 23,0 km/h (4 Bft)
22.08.2012 03:50 20,4 C 65 % 0,0 l/m 10,1 km/h (2 Bft) O-SO 112 13,6 C 19,9 C 9,8 km/h (2 Bft)
22.08.2012 03:55 20,6 C 65 % 0,0 l/m 9,8 km/h (2 Bft) SO 135 13,8 C 20,0 C 12,6 km/h (3 Bft)
22.08.2012 04:00 20,8 C 64 % 0,0 l/m 9,8 km/h (2 Bft) O-SO 112 13,7 C 20,2 C 13,7 km/h (3 Bft)
22.08.2012 04:05 20,6 C 66 % 0,0 l/m 9,8 km/h (2 Bft) O-SO 112 14,0 C 20,0 C 11,3 km/h (2 Bft)
22.08.2012 04:10 20,7 C 65 % 0,0 l/m 11,1 km/h (2 Bft) W-SW 247 13,9 C 19,7 C 14,5 km/h (3 Bft)
22.08.2012 04:15 20,7 C 66 % 0,0 l/m 13,5 km/h (3 Bft) S-SO 157 14,1 C 19,0 C 26,2 km/h (4 Bft)
22.08.2012 04:20 20,2 C 69 % 0,0 l/m 13,4 km/h (3 Bft) S 180 14,3 C 18,2 C 12,6 km/h (3 Bft)
22.08.2012 04:25 19,8 C 72 % 0,0 l/m 14,0 km/h (3 Bft) N 360 14,6 C 16,8 C 15,3 km/h (3 Bft)
22.08.2012 04:30 19,5 C 73 % 0,0 l/m 12,7 km/h (3 Bft) O-SO 112 14,5 C 16,7 C 16,7 km/h (3 Bft)
22.08.2012 04:35 18,8 C 77 % 0,0 l/m 10,6 km/h (2 Bft) SO 135 14,7 C 16,5 C 11,6 km/h (2 Bft)
22.08.2012 04:40 18,1 C 82 % 0,0 l/m 9,3 km/h (2 Bft) NO 45 15,0 C 16,6 C 8,4 km/h (2 Bft)
22.08.2012 04:45 17,7 C 86 % 0,0 l/m 7,1 km/h (2 Bft) O 90 15,3 C 17,1 C 4,8 km/h (1 Bft)
22.08.2012 04:50 17,8 C 86 % 0,0 l/m 5,6 km/h (1 Bft) NO 45 15,4 C 17,3 C 4,5 km/h (1 Bft)
22.08.2012 04:55 17,3 C 86 % 0,0 l/m 3,5 km/h (1 Bft) N 360 14,9 C 17,6 C 2,4 km/h (1 Bft)
22.08.2012 05:00 17,1 C 87 % 0,0 l/m 2,3 km/h (1 Bft) N-NO 22 14,9 C 17,6 C 0,0 km/h (0 Bft)
22.08.2012 05:05 17,2 C 87 % 0,0 l/m 1,0 km/h (0 Bft) N-NO 22 15,0 C 17,5 C 2,9 km/h (1 Bft)
22.08.2012 05:10 17,1 C 87 % 0,0 l/m 1,1 km/h (1 Bft) N 360 14,9 C 17,4 C 0,0 km/h (0 Bft)
22.08.2012 05:15 17,3 C 86 % 0,0 l/m 2,1 km/h (1 Bft) W-NW 292 14,9 C 17,5 C 3,5 km/h (1 Bft)
22.08.2012 05:20 17,3 C 87 % 0,0 l/m 2,3 km/h (1 Bft) S 180 15,1 C 17,6 C 2,9 km/h (1 Bft)
22.08.2012 05:25 17,5 C 87 % 0,0 l/m 1,1 km/h (1 Bft) W-NW 292 15,3 C 17,8 C 0,0 km/h (0 Bft)
22.08.2012 05:30 17,3 C 87 % 0,0 l/m 0,5 km/h (0 Bft) N-NW 337 15,1 C 17,8 C 0,0 km/h (0 Bft)
22.08.2012 05:35 17,4 C 86 % 0,0 l/m 0,5 km/h (0 Bft) N 360 15,0 C 17,8 C 1,9 km/h (1 Bft)
22.08.2012 05:40 17,2 C 87 % 0,0 l/m 0,5 km/h (0 Bft) N 360 15,0 C 17,8 C 0,0 km/h (0 Bft)
22.08.2012 05:45 17,7 C 86 % 0,0 l/m 0,5 km/h (0 Bft) N-NO 22 15,3 C 17,9 C 0,0 km/h (0 Bft)
22.08.2012 05:50 17,6 C 86 % 0,0 l/m 0,3 km/h (0 Bft) N 360 15,2 C 17,9 C 1,6 km/h (1 Bft)
22.08.2012 05:55 17,3 C 87 % 0,0 l/m 0,5 km/h (0 Bft) S 180 15,1 C 17,9 C 0,0 km/h (0 Bft)
22.08.2012 06:00 16,9 C 87 % 0,0 l/m 0,3 km/h (0 Bft) N 360 14,7 C 17,6 C 1,6 km/h (1 Bft)
22.08.2012 06:05 16,8 C 87 % 0,0 l/m 0,2 km/h (0 Bft) N-NO 22 14,6 C 17,1 C 0,0 km/h (0 Bft)
22.08.2012 06:10 16,7 C 88 % 0,0 l/m 0,0 km/h (0 Bft) N-NW 337 14,7 C 16,9 C 0,0 km/h (0 Bft)
22.08.2012 06:15 16,8 C 88 % 0,0 l/m 0,0 km/h (0 Bft) N-NW 337 14,8 C 16,9 C 0,0 km/h (0 Bft)
22.08.2012 06:20 16,8 C 88 % 0,0 l/m 0,0 km/h (0 Bft) W-NW 292 14,8 C 17,0 C 0,0 km/h (0 Bft)
22.08.2012 06:25 16,8 C 89 % 0,0 l/m 0,0 km/h (0 Bft) W-NW 292 15,0 C 16,9 C 0,0 km/h (0 Bft)
22.08.2012 06:30 16,7 C 89 % 0,0 l/m 0,0 km/h (0 Bft) N 360 14,9 C 16,9 C 0,0 km/h (0 Bft)
22.08.2012 06:35 16,6 C 89 % 0,0 l/m 0,0 km/h (0 Bft) W-NW 292 14,8 C 16,7 C 0,0 km/h (0 Bft)
22.08.2012 06:40 16,4 C 89 % 0,0 l/m 0,0 km/h (0 Bft) N 360 14,6 C 16,6 C 0,0 km/h (0 Bft)
22.08.2012 06:45 16,5 C 89 % 0,0 l/m 0,0 km/h (0 Bft) N 360 14,7 C 16,4 C 0,0 km/h (0 Bft)
22.08.2012 06:50 16,5 C 89 % 0,0 l/m 0,0 km/h (0 Bft) S 180 14,7 C 16,3 C 0,0 km/h (0 Bft)
22.08.2012 06:55 16,3 C 89 % 0,0 l/m 0,0 km/h (0 Bft) N-NO 22 14,5 C 16,2 C 0,0 km/h (0 Bft)
22.08.2012 07:00 16,2 C 89 % 0,0 l/m 0,0 km/h (0 Bft) N 360 14,4 C 16,0 C 0,0 km/h (0 Bft)
22.08.2012 07:05 16,3 C 89 % 0,0 l/m 0,0 km/h (0 Bft) W-NW 292 14,5 C 16,0 C 0,0 km/h (0 Bft)
22.08.2012 07:10 16,2 C 89 % 0,0 l/m 0,0 km/h (0 Bft) N 360 14,4 C 16,1 C 0,0 km/h (0 Bft)
22.08.2012 07:15 16,1 C 89 % 0,0 l/m 0,0 km/h (0 Bft) NW 315 14,3 C 16,1 C 0,0 km/h (0 Bft)
22.08.2012 07:20 16,2 C 89 % 0,0 l/m 0,0 km/h (0 Bft) W-NW 292 14,4 C 16,1 C 0,0 km/h (0 Bft)
22.08.2012 07:25 16,4 C 89 % 0,0 l/m 0,0 km/h (0 Bft) W 270 14,6 C 16,5 C 0,0 km/h (0 Bft)
22.08.2012 07:30 16,6 C 89 % 0,0 l/m 0,2 km/h (0 Bft) N-NO 22 14,8 C 16,6 C 0,0 km/h (0 Bft)
22.08.2012 07:35 17,2 C 89 % 0,0 l/m 0,5 km/h (0 Bft) S 180 15,4 C 17,9 C 1,8 km/h (1 Bft)
22.08.2012 07:40 17,0 C 88 % 0,0 l/m 0,5 km/h (0 Bft) NO 45 15,0 C 18,9 C 0,0 km/h (0 Bft)
22.08.2012 07:45 17,3 C 87 % 0,0 l/m 1,0 km/h (0 Bft) N 360 15,1 C 18,9 C 0,0 km/h (0 Bft)
22.08.2012 07:50 18,3 C 87 % 0,0 l/m 0,6 km/h (0 Bft) SO 135 16,1 C 20,2 C 0,0 km/h (0 Bft)
22.08.2012 07:55 20,0 C 83 % 0,0 l/m 0,2 km/h (0 Bft) N 360 18,2 C 21,8 C 2,1 km/h (1 Bft)
22.08.2012 08:00 19,7 C 81 % 0,0 l/m 0,2 km/h (0 Bft) SW 225 18,5 C 22,9 C 0,0 km/h (0 Bft)
22.08.2012 08:05 19,6 C 78 % 0,0 l/m 0,2 km/h (0 Bft) N-NO 22 18,0 C 23,5 C 0,0 km/h (0 Bft)
22.08.2012 08:10 20,6 C 69 % 0,0 l/m 0,2 km/h (0 Bft) N 360 16,6 C 24,2 C 0,0 km/h (0 Bft)
22.08.2012 08:15 22,8 C 71 % 0,0 l/m 0,2 km/h (0 Bft) W 270 18,1 C 25,2 C 0,0 km/h (0 Bft)
22.08.2012 08:20 23,1 C 68 % 0,0 l/m 0,3 km/h (0 Bft) N 360 16,9 C 25,6 C 2,1 km/h (1 Bft)
22.08.2012 08:25 24,1 C 75 % 0,0 l/m 0,3 km/h (0 Bft) N 360 19,6 C 25,6 C 0,0 km/h (0 Bft)
22.08.2012 08:30 24,5 C 61 % 0,0 l/m 0,6 km/h (0 Bft) N-NO 22 16,7 C 26,2 C 2,3 km/h (1 Bft)
22.08.2012 08:35 24,1 C 62 % 0,0 l/m 0,5 km/h (0 Bft) N-NW 337 17,8 C 27,2 C 0,0 km/h (0 Bft)
22.08.2012 08:40 24,1 C 57 % 0,0 l/m 0,3 km/h (0 Bft) N-NW 337 17,2 C 28,0 C 2,1 km/h (1 Bft)
22.08.2012 08:45 24,2 C 54 % 0,0 l/m 0,2 km/h (0 Bft) N 360 17,6 C 29,4 C 0,0 km/h (0 Bft)
22.08.2012 08:50 24,3 C 62 % 0,0 l/m 0,5 km/h (0 Bft) S-SO 157 19,9 C 30,1 C 3,1 km/h (1 Bft)
22.08.2012 08:55 24,2 C 58 % 0,0 l/m 1,3 km/h (1 Bft) S-SO 157 19,0 C 29,5 C 4,7 km/h (1 Bft)
22.08.2012 09:00 24,1 C 58 % 0,0 l/m 2,1 km/h (1 Bft) O 90 17,7 C 28,8 C 1,8 km/h (1 Bft)
22.08.2012 09:05 24,0 C 59 % 0,0 l/m 2,3 km/h (1 Bft) N 360 16,9 C 27,4 C 1,9 km/h (1 Bft)
22.08.2012 09:10 23,9 C 59 % 0,0 l/m 1,4 km/h (1 Bft) O-SO 112 16,6 C 27,5 C 1,8 km/h (1 Bft)
22.08.2012 09:15 24,3 C 51 % 0,0 l/m 1,0 km/h (0 Bft) N 360 15,2 C 27,9 C 0,0 km/h (0 Bft)
22.08.2012 09:20 24,9 C 51 % 0,0 l/m 1,9 km/h (1 Bft) O-SO 112 16,8 C 28,5 C 6,6 km/h (2 Bft)
22.08.2012 09:25 25,3 C 50 % 0,0 l/m 4,2 km/h (1 Bft) O-SO 112 15,7 C 28,7 C 6,4 km/h (2 Bft)
22.08.2012 09:30 25,0 C 50 % 0,0 l/m 4,8 km/h (1 Bft) O 90 15,6 C 28,5 C 4,7 km/h (1 Bft)
22.08.2012 09:35 24,4 C 58 % 0,0 l/m 4,0 km/h (1 Bft) SO 135 15,6 C 26,7 C 6,6 km/h (2 Bft)
22.08.2012 09:40 24,5 C 57 % 0,0 l/m 4,0 km/h (1 Bft) O-SO 112 16,2 C 25,8 C 4,2 km/h (1 Bft)
22.08.2012 09:45 24,4 C 58 % 0,0 l/m 3,7 km/h (1 Bft) SO 135 15,7 C 25,4 C 2,9 km/h (1 Bft)
22.08.2012 09:50 24,1 C 59 % 0,0 l/m 2,9 km/h (1 Bft) O-SO 112 15,6 C 25,1 C 3,9 km/h (1 Bft)
22.08.2012 09:55 24,1 C 60 % 0,0 l/m 1,8 km/h (1 Bft) SO 135 15,8 C 25,0 C 2,9 km/h (1 Bft)
22.08.2012 10:00 24,1 C 61 % 0,0 l/m 2,1 km/h (1 Bft) SO 135 16,1 C 25,0 C 3,5 km/h (1 Bft)
22.08.2012 10:05 23,8 C 60 % 0,0 l/m 3,5 km/h (1 Bft) O-SO 112 15,6 C 24,7 C 5,8 km/h (2 Bft)
22.08.2012 10:10 23,9 C 59 % 0,0 l/m 4,7 km/h (1 Bft) SO 135 15,4 C 24,5 C 8,5 km/h (2 Bft)
22.08.2012 10:15 24,9 C 50 % 0,0 l/m 6,0 km/h (2 Bft) O 90 15,4 C 25,7 C 12,1 km/h (2 Bft)
22.08.2012 10:20 24,9 C 54 % 0,0 l/m 6,8 km/h (2 Bft) N-NO 22 15,6 C 26,2 C 6,8 km/h (2 Bft)
22.08.2012 10:25 24,7 C 54 % 0,0 l/m 7,6 km/h (2 Bft) O-SO 112 14,8 C 25,7 C 19,5 km/h (3 Bft)
22.08.2012 10:30 25,2 C 55 % 0,0 l/m 6,9 km/h (2 Bft) O-SO 112 16,1 C 25,6 C 11,7 km/h (2 Bft)
22.08.2012 10:35 26,0 C 49 % 0,0 l/m 7,9 km/h (2 Bft) S-SO 157 16,2 C 26,9 C 12,7 km/h (3 Bft)
22.08.2012 10:40 26,4 C 47 % 0,0 l/m 7,7 km/h (2 Bft) O-SO 112 15,9 C 27,9 C 13,2 km/h (3 Bft)
22.08.2012 10:45 26,9 C 47 % 0,0 l/m 7,4 km/h (2 Bft) O-SO 112 15,8 C 28,6 C 11,7 km/h (2 Bft)
22.08.2012 10:50 27,0 C 47 % 0,0 l/m 8,4 km/h (2 Bft) S 180 15,9 C 28,2 C 7,2 km/h (2 Bft)
22.08.2012 10:55 27,3 C 48 % 0,0 l/m 7,2 km/h (2 Bft) O-SO 112 16,4 C 28,8 C 4,8 km/h (1 Bft)
22.08.2012 11:00 27,7 C 46 % 0,0 l/m 6,0 km/h (2 Bft) O 90 15,9 C 29,3 C 8,2 km/h (2 Bft)
22.08.2012 11:05 28,1 C 44 % 0,0 l/m 5,6 km/h (1 Bft) S 180 15,3 C 29,7 C 6,1 km/h (2 Bft)
22.08.2012 11:10 28,1 C 46 % 0,0 l/m 6,0 km/h (2 Bft) SO 135 15,9 C 29,7 C 5,0 km/h (1 Bft)
22.08.2012 11:15 28,3 C 46 % 0,0 l/m 6,4 km/h (2 Bft) NO 45 15,9 C 29,4 C 3,4 km/h (1 Bft)
22.08.2012 11:20 28,5 C 46 % 0,0 l/m 7,1 km/h (2 Bft) S-SO 157 15,9 C 29,6 C 11,9 km/h (2 Bft)
22.08.2012 11:25 28,4 C 44 % 0,0 l/m 7,6 km/h (2 Bft) O-SO 112 14,9 C 29,5 C 11,4 km/h (2 Bft)
22.08.2012 11:30 28,4 C 44 % 0,0 l/m 8,5 km/h (2 Bft) O-SO 112 14,9 C 29,3 C 9,5 km/h (2 Bft)
22.08.2012 11:35 28,6 C 45 % 0,0 l/m 8,4 km/h (2 Bft) S-SO 157 15,5 C 29,3 C 13,5 km/h (3 Bft)
22.08.2012 11:40 28,3 C 44 % 0,0 l/m 9,2 km/h (2 Bft) O-SO 112 14,9 C 29,1 C 15,3 km/h (3 Bft)
22.08.2012 11:45 28,6 C 45 % 0,0 l/m 10,9 km/h (2 Bft) S 180 15,5 C 28,7 C 16,6 km/h (3 Bft)
22.08.2012 11:50 28,7 C 42 % 0,0 l/m 9,8 km/h (2 Bft) S 180 14,5 C 28,9 C 12,6 km/h (3 Bft)
22.08.2012 11:55 28,8 C 45 % 0,0 l/m 9,7 km/h (2 Bft) O 90 15,7 C 28,8 C 8,5 km/h (2 Bft)
22.08.2012 12:00 29,0 C 44 % 0,0 l/m 9,0 km/h (2 Bft) S 180 15,5 C 29,0 C 6,6 km/h (2 Bft)
22.08.2012 12:05 29,3 C 43 % 0,0 l/m 7,2 km/h (2 Bft) S-SO 157 15,4 C 29,5 C 6,8 km/h (2 Bft)
22.08.2012 12:10 29,2 C 43 % 0,0 l/m 7,1 km/h (2 Bft) O-SO 112 15,3 C 29,8 C 10,1 km/h (2 Bft)
22.08.2012 12:15 28,8 C 44 % 0,0 l/m 8,7 km/h (2 Bft) S 180 15,3 C 29,5 C 16,3 km/h (3 Bft)
22.08.2012 12:20 28,5 C 46 % 0,0 l/m 10,1 km/h (2 Bft) SO 135 15,7 C 29,0 C 13,0 km/h (3 Bft)
22.08.2012 12:25 29,1 C 44 % 0,0 l/m 9,8 km/h (2 Bft) O-SO 112 15,6 C 29,4 C 19,2 km/h (3 Bft)
22.08.2012 12:30 28,0 C 46 % 0,0 l/m 8,5 km/h (2 Bft) NO 45 15,3 C 29,1 C 7,2 km/h (2 Bft)
22.08.2012 12:35 28,6 C 45 % 0,0 l/m 9,0 km/h (2 Bft) W-NW 292 15,5 C 28,8 C 10,5 km/h (2 Bft)
22.08.2012 12:40 28,5 C 45 % 0,0 l/m 10,3 km/h (2 Bft) O-SO 112 15,4 C 28,8 C 22,0 km/h (4 Bft)
22.08.2012 12:45 28,6 C 44 % 0,0 l/m 10,8 km/h (2 Bft) O-SO 112 15,1 C 28,8 C 9,2 km/h (2 Bft)
22.08.2012 12:50 28,6 C 46 % 0,0 l/m 10,1 km/h (2 Bft) O-SO 112 15,8 C 28,9 C 10,9 km/h (2 Bft)
22.08.2012 12:55 28,6 C 43 % 0,0 l/m 9,3 km/h (2 Bft) O-SO 112 14,8 C 28,9 C 11,1 km/h (2 Bft)
22.08.2012 13:00 28,8 C 46 % 0,0 l/m 8,7 km/h (2 Bft) SO 135 16,0 C 29,0 C 11,4 km/h (2 Bft)
22.08.2012 13:05 28,4 C 46 % 0,0 l/m 9,5 km/h (2 Bft) SO 135 15,6 C 29,0 C 16,6 km/h (3 Bft)
22.08.2012 13:10 28,3 C 46 % 0,0 l/m 10,1 km/h (2 Bft) S 180 15,6 C 28,8 C 18,7 km/h (3 Bft)
22.08.2012 13:15 28,1 C 48 % 0,0 l/m 10,5 km/h (2 Bft) S-SO 157 16,0 C 28,3 C 13,7 km/h (3 Bft)
22.08.2012 13:20 28,5 C 47 % 0,0 l/m 10,0 km/h (2 Bft) O-SO 112 16,1 C 28,3 C 12,1 km/h (2 Bft)
22.08.2012 13:25 28,3 C 48 % 0,0 l/m 9,0 km/h (2 Bft) S 180 16,2 C 28,0 C 9,7 km/h (2 Bft)
22.08.2012 13:30 28,4 C 49 % 0,0 l/m 9,5 km/h (2 Bft) O 90 16,6 C 27,7 C 15,0 km/h (3 Bft)
22.08.2012 13:35 28,4 C 48 % 0,0 l/m 9,8 km/h (2 Bft) S 180 16,3 C 27,2 C 14,0 km/h (3 Bft)
22.08.2012 13:40 28,1 C 47 % 0,0 l/m 10,5 km/h (2 Bft) SO 135 15,7 C 26,9 C 14,0 km/h (3 Bft)
22.08.2012 13:45 28,0 C 48 % 0,0 l/m 11,3 km/h (2 Bft) SO 135 15,9 C 26,8 C 11,4 km/h (2 Bft)
22.08.2012 13:50 28,4 C 48 % 0,0 l/m 10,3 km/h (2 Bft) S 180 16,3 C 27,2 C 9,2 km/h (2 Bft)
22.08.2012 13:55 28,8 C 48 % 0,0 l/m 8,2 km/h (2 Bft) SO 135 16,7 C 28,4 C 10,0 km/h (2 Bft)
22.08.2012 14:00 28,7 C 47 % 0,0 l/m 8,7 km/h (2 Bft) S-SO 157 16,3 C 28,6 C 14,2 km/h (3 Bft)
22.08.2012 14:05 28,5 C 49 % 0,0 l/m 9,0 km/h (2 Bft) S-SO 157 16,7 C 28,9 C 10,6 km/h (2 Bft)
22.08.2012 14:10 28,5 C 47 % 0,0 l/m 8,5 km/h (2 Bft) O-SO 112 16,1 C 29,3 C 16,4 km/h (3 Bft)
22.08.2012 14:15 28,5 C 49 % 0,0 l/m 8,9 km/h (2 Bft) S 180 16,7 C 29,1 C 11,9 km/h (2 Bft)
22.08.2012 14:20 28,4 C 48 % 0,0 l/m 9,2 km/h (2 Bft) SO 135 16,3 C 29,3 C 15,4 km/h (3 Bft)
22.08.2012 14:25 28,5 C 48 % 0,0 l/m 9,0 km/h (2 Bft) S 180 16,4 C 29,2 C 12,2 km/h (2 Bft)
22.08.2012 14:30 28,6 C 48 % 0,0 l/m 9,8 km/h (2 Bft) S-SO 157 16,5 C 29,0 C 12,2 km/h (2 Bft)
22.08.2012 14:35 28,6 C 48 % 0,0 l/m 9,8 km/h (2 Bft) S-SO 157 16,5 C 29,0 C 11,4 km/h (2 Bft)
22.08.2012 14:40 28,6 C 48 % 0,0 l/m 10,0 km/h (2 Bft) SO 135 16,5 C 28,9 C 11,1 km/h (2 Bft)
22.08.2012 14:45 28,7 C 49 % 0,0 l/m 8,7 km/h (2 Bft) S-SO 157 16,9 C 29,4 C 16,7 km/h (3 Bft)
22.08.2012 14:50 28,8 C 49 % 0,0 l/m 8,4 km/h (2 Bft) O 90 17,0 C 29,5 C 17,5 km/h (3 Bft)
22.08.2012 14:55 28,7 C 47 % 0,0 l/m 8,9 km/h (2 Bft) S 180 16,3 C 29,5 C 9,0 km/h (2 Bft)
22.08.2012 15:00 28,9 C 48 % 0,0 l/m 9,2 km/h (2 Bft) O-SO 112 16,8 C 29,4 C 12,6 km/h (3 Bft)
22.08.2012 15:05 28,6 C 48 % 0,0 l/m 9,5 km/h (2 Bft) SO 135 16,5 C 29,2 C 14,3 km/h (3 Bft)
22.08.2012 15:10 28,5 C 48 % 0,0 l/m 9,7 km/h (2 Bft) SO 135 16,4 C 29,1 C 8,2 km/h (2 Bft)
22.08.2012 15:15 28,7 C 48 % 0,0 l/m 9,0 km/h (2 Bft) SO 135 16,6 C 29,1 C 12,9 km/h (3 Bft)
22.08.2012 15:20 28,3 C 47 % 0,0 l/m 9,3 km/h (2 Bft) S 180 15,9 C 29,2 C 16,6 km/h (3 Bft)
22.08.2012 15:25 28,4 C 47 % 0,0 l/m 9,5 km/h (2 Bft) S-SO 157 16,0 C 29,1 C 12,2 km/h (2 Bft)
22.08.2012 15:30 28,4 C 48 % 0,0 l/m 9,0 km/h (2 Bft) SO 135 16,3 C 29,0 C 13,5 km/h (3 Bft)
22.08.2012 15:35 28,4 C 47 % 0,0 l/m 7,9 km/h (2 Bft) S 180 16,0 C 29,3 C 11,3 km/h (2 Bft)
22.08.2012 15:40 28,5 C 47 % 0,0 l/m 7,7 km/h (2 Bft) O-SO 112 16,1 C 29,6 C 15,9 km/h (3 Bft)
22.08.2012 15:45 28,4 C 48 % 0,0 l/m 7,9 km/h (2 Bft) S 180 16,3 C 29,5 C 10,6 km/h (2 Bft)
22.08.2012 15:50 28,1 C 47 % 0,0 l/m 9,2 km/h (2 Bft) SO 135 15,7 C 29,3 C 18,8 km/h (3 Bft)
22.08.2012 15:55 28,0 C 48 % 0,0 l/m 9,7 km/h (2 Bft) O-SO 112 15,9 C 28,9 C 13,7 km/h (3 Bft)
22.08.2012 16:00 28,1 C 48 % 0,0 l/m 9,3 km/h (2 Bft) SO 135 16,0 C 29,0 C 8,7 km/h (2 Bft)
22.08.2012 16:05 28,3 C 49 % 0,0 l/m 7,1 km/h (2 Bft) SO 135 16,5 C 29,4 C 6,9 km/h (2 Bft)
22.08.2012 16:10 28,1 C 49 % 0,0 l/m 7,1 km/h (2 Bft) SO 135 16,4 C 29,4 C 5,0 km/h (1 Bft)
22.08.2012 16:15 28,2 C 48 % 0,0 l/m 7,4 km/h (2 Bft) S-SO 157 16,1 C 29,5 C 7,2 km/h (2 Bft)
22.08.2012 16:20 28,0 C 48 % 0,0 l/m 6,9 km/h (2 Bft) SO 135 15,9 C 29,6 C 5,8 km/h (2 Bft)
22.08.2012 16:25 28,0 C 48 % 0,0 l/m 6,8 km/h (2 Bft) SO 135 15,9 C 29,7 C 10,9 km/h (2 Bft)
22.08.2012 16:30 27,7 C 49 % 0,0 l/m 6,6 km/h (2 Bft) S-SO 157 16,0 C 29,8 C 12,4 km/h (3 Bft)
22.08.2012 16:35 27,2 C 50 % 0,0 l/m 7,9 km/h (2 Bft) SO 135 15,9 C 29,1 C 10,3 km/h (2 Bft)
22.08.2012 16:40 27,1 C 50 % 0,0 l/m 8,2 km/h (2 Bft) S 180 15,8 C 29,0 C 11,7 km/h (2 Bft)
22.08.2012 16:45 26,7 C 51 % 0,0 l/m 7,4 km/h (2 Bft) S-SW 202 15,7 C 29,1 C 7,1 km/h (2 Bft)
22.08.2012 16:50 26,6 C 53 % 0,0 l/m 7,4 km/h (2 Bft) SO 135 16,2 C 29,1 C 6,4 km/h (2 Bft)
22.08.2012 16:55 26,6 C 52 % 0,0 l/m 5,8 km/h (2 Bft) S 180 15,9 C 29,5 C 10,5 km/h (2 Bft)
22.08.2012 17:00 26,5 C 54 % 0,0 l/m 6,3 km/h (2 Bft) S-SO 157 16,4 C 29,5 C 8,7 km/h (2 Bft)
22.08.2012 17:05 26,2 C 53 % 0,0 l/m 6,9 km/h (2 Bft) S-SO 157 15,8 C 29,2 C 9,8 km/h (2 Bft)
22.08.2012 17:10 26,2 C 53 % 0,0 l/m 7,1 km/h (2 Bft) S 180 15,8 C 29,2 C 10,3 km/h (2 Bft)
22.08.2012 17:15 26,1 C 55 % 0,0 l/m 6,0 km/h (2 Bft) S 180 16,3 C 29,3 C 3,4 km/h (1 Bft)
22.08.2012 17:20 26,1 C 54 % 0,0 l/m 5,5 km/h (1 Bft) S 180 16,0 C 29,4 C 5,8 km/h (2 Bft)
22.08.2012 17:25 26,0 C 54 % 0,0 l/m 4,7 km/h (1 Bft) S-SW 202 16,0 C 29,6 C 5,3 km/h (1 Bft)
22.08.2012 17:30 25,8 C 57 % 0,0 l/m 4,7 km/h (1 Bft) O-SO 112 16,6 C 29,6 C 8,0 km/h (2 Bft)
22.08.2012 17:35 25,7 C 56 % 0,0 l/m 5,0 km/h (1 Bft) S 180 16,2 C 29,6 C 9,7 km/h (2 Bft)
22.08.2012 17:40 25,5 C 56 % 0,0 l/m 5,0 km/h (1 Bft) S-SW 202 16,1 C 29,5 C 5,0 km/h (1 Bft)
22.08.2012 17:45 25,6 C 57 % 0,0 l/m 4,8 km/h (1 Bft) S 180 16,4 C 29,6 C 5,1 km/h (1 Bft)
22.08.2012 17:50 25,5 C 58 % 0,0 l/m 4,2 km/h (1 Bft) S 180 16,6 C 29,7 C 4,5 km/h (1 Bft)
22.08.2012 17:55 25,4 C 57 % 0,0 l/m 4,7 km/h (1 Bft) SO 135 16,2 C 29,5 C 2,3 km/h (1 Bft)
22.08.2012 18:00 25,3 C 58 % 0,0 l/m 5,1 km/h (1 Bft) S 180 16,4 C 29,4 C 6,6 km/h (2 Bft)
22.08.2012 18:05 25,2 C 58 % 0,0 l/m 4,0 km/h (1 Bft) NW 315 16,3 C 29,4 C 2,1 km/h (1 Bft)
22.08.2012 18:10 25,2 C 58 % 0,0 l/m 3,9 km/h (1 Bft) O-SO 112 16,3 C 29,5 C 7,1 km/h (2 Bft)
22.08.2012 18:15 25,1 C 59 % 0,0 l/m 3,9 km/h (1 Bft) SO 135 16,5 C 29,4 C 5,3 km/h (1 Bft)
22.08.2012 18:20 24,9 C 59 % 0,0 l/m 3,9 km/h (1 Bft) O-SO 112 16,3 C 29,5 C 2,1 km/h (1 Bft)
22.08.2012 18:25 24,8 C 59 % 0,0 l/m 3,4 km/h (1 Bft) SO 135 16,2 C 29,5 C 2,4 km/h (1 Bft)
22.08.2012 18:30 24,7 C 61 % 0,0 l/m 3,1 km/h (1 Bft) S-SO 157 16,7 C 29,5 C 3,4 km/h (1 Bft)
22.08.2012 18:35 24,7 C 60 % 0,0 l/m 3,1 km/h (1 Bft) S-SO 157 16,4 C 29,3 C 2,6 km/h (1 Bft)
22.08.2012 18:40 24,6 C 60 % 0,0 l/m 3,1 km/h (1 Bft) SO 135 16,3 C 29,3 C 3,5 km/h (1 Bft)
22.08.2012 18:45 24,5 C 60 % 0,0 l/m 3,2 km/h (1 Bft) S 180 16,2 C 29,0 C 3,7 km/h (1 Bft)
22.08.2012 18:50 24,4 C 60 % 0,0 l/m 3,7 km/h (1 Bft) SO 135 16,1 C 28,7 C 3,7 km/h (1 Bft)
22.08.2012 18:55 24,1 C 61 % 0,0 l/m 3,7 km/h (1 Bft) S 180 16,1 C 28,3 C 4,5 km/h (1 Bft)
22.08.2012 19:00 24,1 C 61 % 0,0 l/m 3,5 km/h (1 Bft) O-SO 112 16,1 C 28,1 C 2,4 km/h (1 Bft)
22.08.2012 19:05 23,7 C 62 % 0,0 l/m 3,5 km/h (1 Bft) O-SO 112 16,0 C 27,8 C 2,7 km/h (1 Bft)
22.08.2012 19:10 23,5 C 62 % 0,0 l/m 2,7 km/h (1 Bft) O-SO 112 15,8 C 27,6 C 0,0 km/h (0 Bft)
22.08.2012 19:15 23,3 C 63 % 0,0 l/m 2,4 km/h (1 Bft) S-SO 157 15,9 C 27,5 C 2,3 km/h (1 Bft)
22.08.2012 19:20 23,2 C 62 % 0,0 l/m 1,8 km/h (1 Bft) O-SO 112 15,5 C 27,4 C 2,9 km/h (1 Bft)
22.08.2012 19:25 23,1 C 63 % 0,0 l/m 2,6 km/h (1 Bft) O-SO 112 15,7 C 27,0 C 4,0 km/h (1 Bft)
22.08.2012 19:30 23,1 C 63 % 0,0 l/m 3,2 km/h (1 Bft) SO 135 15,7 C 26,6 C 3,7 km/h (1 Bft)
22.08.2012 19:35 22,8 C 65 % 0,0 l/m 2,1 km/h (1 Bft) O 90 15,9 C 26,1 C 1,6 km/h (1 Bft)
22.08.2012 19:40 22,9 C 65 % 0,0 l/m 1,0 km/h (0 Bft) NO 45 16,0 C 25,9 C 0,0 km/h (0 Bft)
22.08.2012 19:45 22,6 C 67 % 0,0 l/m 0,0 km/h (0 Bft) N-NO 22 16,2 C 25,3 C 0,0 km/h (0 Bft)
22.08.2012 19:50 22,4 C 68 % 0,0 l/m 0,0 km/h (0 Bft) O-NO 67 16,2 C 24,7 C 0,0 km/h (0 Bft)
22.08.2012 19:55 22,1 C 69 % 0,0 l/m 0,0 km/h (0 Bft) N-NO 22 16,1 C 24,0 C 0,0 km/h (0 Bft)
22.08.2012 20:00 22,0 C 69 % 0,0 l/m 0,0 km/h (0 Bft) NO 45 16,0 C 23,4 C 0,0 km/h (0 Bft)
22.08.2012 20:05 21,4 C 69 % 0,0 l/m 0,0 km/h (0 Bft) S 180 15,5 C 22,7 C 0,0 km/h (0 Bft)
22.08.2012 20:10 20,9 C 72 % 0,0 l/m 0,0 km/h (0 Bft) N-NO 22 15,7 C 22,2 C 0,0 km/h (0 Bft)
22.08.2012 20:15 20,8 C 72 % 0,0 l/m 0,0 km/h (0 Bft) N 360 15,6 C 21,4 C 0,0 km/h (0 Bft)
22.08.2012 20:20 21,0 C 72 % 0,0 l/m 0,0 km/h (0 Bft) N-NO 22 15,8 C 21,1 C 0,0 km/h (0 Bft)
22.08.2012 20:25 20,9 C 73 % 0,0 l/m 0,2 km/h (0 Bft) N-NO 22 15,9 C 20,7 C 0,0 km/h (0 Bft)
22.08.2012 20:30 20,8 C 73 % 0,0 l/m 0,2 km/h (0 Bft) N 360 15,8 C 20,6 C 0,0 km/h (0 Bft)
22.08.2012 20:35 20,8 C 73 % 0,0 l/m 0,8 km/h (0 Bft) NO 45 15,8 C 20,6 C 2,4 km/h (1 Bft)
22.08.2012 20:40 20,7 C 73 % 0,0 l/m 1,4 km/h (1 Bft) NO 45 15,7 C 20,7 C 0,0 km/h (0 Bft)
22.08.2012 20:45 20,6 C 73 % 0,0 l/m 1,1 km/h (1 Bft) N-NO 22 15,6 C 20,6 C 1,8 km/h (1 Bft)
22.08.2012 20:50 20,6 C 73 % 0,0 l/m 0,5 km/h (0 Bft) N-NO 22 15,6 C 20,4 C 0,0 km/h (0 Bft)
22.08.2012 20:55 20,4 C 74 % 0,0 l/m 0,8 km/h (0 Bft) N 360 15,6 C 20,2 C 1,6 km/h (1 Bft)
22.08.2012 21:00 20,5 C 74 % 0,0 l/m 1,0 km/h (0 Bft) N-NO 22 15,7 C 20,2 C 0,0 km/h (0 Bft)
22.08.2012 21:05 20,7 C 74 % 0,0 l/m 1,1 km/h (1 Bft) N 360 15,9 C 20,2 C 2,3 km/h (1 Bft)
22.08.2012 21:10 20,9 C 75 % 0,0 l/m 0,8 km/h (0 Bft) N 360 16,3 C 20,4 C 0,0 km/h (0 Bft)
22.08.2012 21:15 20,6 C 74 % 0,0 l/m 0,5 km/h (0 Bft) O 90 15,8 C 20,4 C 0,0 km/h (0 Bft)
22.08.2012 21:20 20,0 C 74 % 0,0 l/m 0,2 km/h (0 Bft) N-NO 22 15,2 C 20,2 C 0,0 km/h (0 Bft)
22.08.2012 21:25 20,1 C 76 % 0,0 l/m 0,0 km/h (0 Bft) N 360 15,7 C 19,8 C 0,0 km/h (0 Bft)
22.08.2012 21:30 20,1 C 76 % 0,0 l/m 0,0 km/h (0 Bft) O 90 15,7 C 19,6 C 0,0 km/h (0 Bft)
22.08.2012 21:35 19,7 C 77 % 0,0 l/m 0,5 km/h (0 Bft) N-NO 22 15,5 C 19,4 C 1,9 km/h (1 Bft)
22.08.2012 21:40 19,2 C 78 % 0,0 l/m 0,5 km/h (0 Bft) O-SO 112 15,3 C 19,1 C 0,0 km/h (0 Bft)
22.08.2012 21:45 19,2 C 78 % 0,0 l/m 0,3 km/h (0 Bft) SO 135 15,3 C 18,8 C 3,1 km/h (1 Bft)
22.08.2012 21:50 18,7 C 79 % 0,0 l/m 0,8 km/h (0 Bft) NO 45 15,0 C 18,6 C 0,0 km/h (0 Bft)
22.08.2012 21:55 18,8 C 81 % 0,0 l/m 0,6 km/h (0 Bft) NO 45 15,5 C 18,3 C 0,0 km/h (0 Bft)
22.08.2012 22:00 18,8 C 80 % 0,0 l/m 0,0 km/h (0 Bft) S 180 15,3 C 18,3 C 0,0 km/h (0 Bft)
22.08.2012 22:05 18,2 C 80 % 0,0 l/m 0,0 km/h (0 Bft) SO 135 14,7 C 18,0 C 0,0 km/h (0 Bft)
22.08.2012 22:10 18,3 C 81 % 0,0 l/m 0,0 km/h (0 Bft) NO 45 15,0 C 17,8 C 0,0 km/h (0 Bft)
22.08.2012 22:15 18,4 C 82 % 0,0 l/m 0,0 km/h (0 Bft) N 360 15,3 C 17,7 C 0,0 km/h (0 Bft)
22.08.2012 22:20 18,3 C 82 % 0,0 l/m 0,0 km/h (0 Bft) NO 45 15,2 C 17,6 C 0,0 km/h (0 Bft)
22.08.2012 22:25 18,4 C 83 % 0,0 l/m 0,0 km/h (0 Bft) N 360 15,5 C 17,5 C 0,0 km/h (0 Bft)
22.08.2012 22:30 18,6 C 83 % 0,0 l/m 0,0 km/h (0 Bft) O-NO 67 15,7 C 17,5 C 0,0 km/h (0 Bft)
22.08.2012 22:35 18,1 C 82 % 0,0 l/m 0,0 km/h (0 Bft) O 90 15,0 C 17,5 C 0,0 km/h (0 Bft)
22.08.2012 22:40 17,9 C 82 % 0,0 l/m 0,0 km/h (0 Bft) SO 135 14,8 C 17,5 C 0,0 km/h (0 Bft)
22.08.2012 22:45 17,9 C 82 % 0,0 l/m 0,0 km/h (0 Bft) SO 135 14,8 C 17,4 C 0,0 km/h (0 Bft)
22.08.2012 22:50 17,9 C 83 % 0,0 l/m 0,0 km/h (0 Bft) NO 45 15,0 C 17,4 C 0,0 km/h (0 Bft)
22.08.2012 22:55 17,7 C 83 % 0,0 l/m 0,0 km/h (0 Bft) N-NW 337 14,8 C 17,4 C 0,0 km/h (0 Bft)
22.08.2012 23:00 17,6 C 83 % 0,0 l/m 0,0 km/h (0 Bft) W-SW 247 14,7 C 17,3 C 0,0 km/h (0 Bft)
22.08.2012 23:05 17,5 C 83 % 0,0 l/m 0,0 km/h (0 Bft) W-SW 247 14,6 C 17,1 C 0,0 km/h (0 Bft)
22.08.2012 23:10 17,5 C 84 % 0,0 l/m 0,0 km/h (0 Bft) N 360 14,8 C 17,1 C 0,0 km/h (0 Bft)
22.08.2012 23:15 17,3 C 84 % 0,0 l/m 0,0 km/h (0 Bft) SO 135 14,6 C 16,9 C 0,0 km/h (0 Bft)
22.08.2012 23:20 17,2 C 84 % 0,0 l/m 0,0 km/h (0 Bft) SO 135 14,5 C 16,8 C 0,0 km/h (0 Bft)
22.08.2012 23:25 17,0 C 84 % 0,0 l/m 0,0 km/h (0 Bft) NO 45 14,3 C 16,6 C 0,0 km/h (0 Bft)
22.08.2012 23:30 16,9 C 85 % 0,0 l/m 0,0 km/h (0 Bft) S-SO 157 14,4 C 16,6 C 0,0 km/h (0 Bft)
22.08.2012 23:35 16,9 C 85 % 0,0 l/m 0,0 km/h (0 Bft) W-NW 292 14,4 C 16,5 C 0,0 km/h (0 Bft)
22.08.2012 23:40 16,9 C 85 % 0,0 l/m 0,0 km/h (0 Bft) NO 45 14,4 C 16,5 C 0,0 km/h (0 Bft)
22.08.2012 23:45 16,9 C 86 % 0,0 l/m 0,3 km/h (0 Bft) N-NW 337 14,5 C 16,5 C 0,0 km/h (0 Bft)
22.08.2012 23:50 16,8 C 85 % 0,0 l/m 0,3 km/h (0 Bft) W-SW 247 14,3 C 16,4 C 0,0 km/h (0 Bft)
22.08.2012 23:55 16,9 C 86 % 0,0 l/m 0,0 km/h (0 Bft) W-SW 247 14,5 C 16,4 C 0,0 km/h (0 Bft)
_ Min-Zeit 07:15 11:50 - 23:55 - - 03:25 07:05 23:55
Minimum _ 16,1 C 42 % - 0,0 km/h (0 Bft) - - 12,5 C 16,0 C 0,0 km/h (0 Bft)
_ Max-Zeit 12:05 07:35 23:55 04:25 - - 08:50 08:50 04:15
Maximum _ 29,3 C 89 % 0,0 l/m 14,0 km/h
N (3 Bft)
- - 19,9 C 30,1 C 26,2 km/h
S-SO (4 Bft)
Durchschnitt _ 22,4 C 65 % #0,0 l/m 3,8 km/h (1 Bft) O-SO - 15,3 C 23,4 C 5,1 km/h (1 Bft)